sensor_id;sensor_type;location;lat;lon;timestamp;temperature;humidity
31809;DHT22;18379;48.208;-1.518;2022-09-09T00:00:15;17.60;99.90
31809;DHT22;18379;48.208;-1.518;2022-09-09T00:06:08;17.80;99.90
31809;DHT22;18379;48.208;-1.518;2022-09-09T00:10:50;17.90;99.90
31809;DHT22;18379;48.208;-1.518;2022-09-09T00:16:24;17.80;99.90
31809;DHT22;18379;48.208;-1.518;2022-09-09T00:21:37;17.60;99.90
31809;DHT22;18379;48.208;-1.518;2022-09-09T00:26:45;17.50;99.90
31809;DHT22;18379;48.208;-1.518;2022-09-09T00:31:49;17.40;99.90
31809;DHT22;18379;48.208;-1.518;2022-09-09T00:36:53;17.40;99.90
31809;DHT22;18379;48.208;-1.518;2022-09-09T00:42:25;17.40;99.90
31809;DHT22;18379;48.208;-1.518;2022-09-09T00:47:39;17.30;99.90
31809;DHT22;18379;48.208;-1.518;2022-09-09T00:52:58;17.30;99.90
31809;DHT22;18379;48.208;-1.518;2022-09-09T00:58:01;17.30;99.90
31809;DHT22;18379;48.208;-1.518;2022-09-09T01:08:36;17.30;99.90
31809;DHT22;18379;48.208;-1.518;2022-09-09T01:13:41;17.20;99.90
31809;DHT22;18379;48.208;-1.518;2022-09-09T01:18:49;17.20;99.90
31809;DHT22;18379;48.208;-1.518;2022-09-09T01:29:11;17.10;99.90
31809;DHT22;18379;48.208;-1.518;2022-09-09T01:34:14;17.20;99.90
31809;DHT22;18379;48.208;-1.518;2022-09-09T01:39:15;17.20;99.90
31809;DHT22;18379;48.208;-1.518;2022-09-09T01:44:17;17.20;99.90
31809;DHT22;18379;48.208;-1.518;2022-09-09T01:49:19;17.20;99.90
31809;DHT22;18379;48.208;-1.518;2022-09-09T01:54:21;17.10;99.90
31809;DHT22;18379;48.208;-1.518;2022-09-09T02:09:41;17.10;99.90
31809;DHT22;18379;48.208;-1.518;2022-09-09T02:14:55;17.10;99.90
31809;DHT22;18379;48.208;-1.518;2022-09-09T02:20:06;17.20;99.90
31809;DHT22;18379;48.208;-1.518;2022-09-09T02:25:10;17.20;99.90
31809;DHT22;18379;48.208;-1.518;2022-09-09T02:30:12;17.10;99.90
31809;DHT22;18379;48.208;-1.518;2022-09-09T02:35:21;17.10;99.90
31809;DHT22;18379;48.208;-1.518;2022-09-09T02:40:24;17.00;99.90
31809;DHT22;18379;48.208;-1.518;2022-09-09T02:45:29;17.00;99.90
31809;DHT22;18379;48.208;-1.518;2022-09-09T02:50:40;17.00;99.90
31809;DHT22;18379;48.208;-1.518;2022-09-09T02:56:04;17.00;99.90
31809;DHT22;18379;48.208;-1.518;2022-09-09T03:01:07;17.10;99.90
31809;DHT22;18379;48.208;-1.518;2022-09-09T03:06:09;17.10;99.90
31809;DHT22;18379;48.208;-1.518;2022-09-09T03:11:12;17.10;99.90
31809;DHT22;18379;48.208;-1.518;2022-09-09T03:16:14;17.10;99.90
31809;DHT22;18379;48.208;-1.518;2022-09-09T03:21:15;17.20;99.90
31809;DHT22;18379;48.208;-1.518;2022-09-09T03:26:16;17.20;99.90
31809;DHT22;18379;48.208;-1.518;2022-09-09T03:31:17;17.20;99.90
31809;DHT22;18379;48.208;-1.518;2022-09-09T03:36:18;17.20;99.90
31809;DHT22;18379;48.208;-1.518;2022-09-09T03:41:19;17.10;99.90
31809;DHT22;18379;48.208;-1.518;2022-09-09T03:46:22;17.20;99.90
31809;DHT22;18379;48.208;-1.518;2022-09-09T03:51:23;17.10;99.90
31809;DHT22;18379;48.208;-1.518;2022-09-09T03:56:24;17.10;99.90
31809;DHT22;18379;48.208;-1.518;2022-09-09T04:01:25;17.10;99.90
31809;DHT22;18379;48.208;-1.518;2022-09-09T04:06:26;17.00;99.90
31809;DHT22;18379;48.208;-1.518;2022-09-09T04:11:26;17.10;99.90
31809;DHT22;18379;48.208;-1.518;2022-09-09T04:16:27;17.00;99.90
31809;DHT22;18379;48.208;-1.518;2022-09-09T04:21:28;17.00;99.90
31809;DHT22;18379;48.208;-1.518;2022-09-09T04:26:29;17.00;99.90
31809;DHT22;18379;48.208;-1.518;2022-09-09T04:31:30;17.00;99.90
31809;DHT22;18379;48.208;-1.518;2022-09-09T04:36:32;17.00;99.90
31809;DHT22;18379;48.208;-1.518;2022-09-09T04:41:33;16.90;99.90
31809;DHT22;18379;48.208;-1.518;2022-09-09T04:46:38;16.90;99.90
31809;DHT22;18379;48.208;-1.518;2022-09-09T04:51:38;16.90;99.90
31809;DHT22;18379;48.208;-1.518;2022-09-09T04:56:39;16.80;99.90
31809;DHT22;18379;48.208;-1.518;2022-09-09T05:01:42;16.80;99.90
31809;DHT22;18379;48.208;-1.518;2022-09-09T05:06:43;16.80;99.90
31809;DHT22;18379;48.208;-1.518;2022-09-09T05:11:44;16.80;99.90
31809;DHT22;18379;48.208;-1.518;2022-09-09T05:16:45;16.80;99.90
31809;DHT22;18379;48.208;-1.518;2022-09-09T05:21:47;16.70;99.90
31809;DHT22;18379;48.208;-1.518;2022-09-09T05:26:48;16.70;99.90
31809;DHT22;18379;48.208;-1.518;2022-09-09T05:31:49;16.70;99.90
31809;DHT22;18379;48.208;-1.518;2022-09-09T05:36:50;16.70;99.90
31809;DHT22;18379;48.208;-1.518;2022-09-09T05:41:52;16.70;99.90
31809;DHT22;18379;48.208;-1.518;2022-09-09T05:46:53;16.80;99.90
31809;DHT22;18379;48.208;-1.518;2022-09-09T05:51:54;16.80;99.90
31809;DHT22;18379;48.208;-1.518;2022-09-09T05:56:55;16.70;99.90
31809;DHT22;18379;48.208;-1.518;2022-09-09T06:01:58;16.80;99.90
31809;DHT22;18379;48.208;-1.518;2022-09-09T06:06:59;16.70;99.90
31809;DHT22;18379;48.208;-1.518;2022-09-09T06:12:00;16.70;99.90
31809;DHT22;18379;48.208;-1.518;2022-09-09T06:17:01;16.80;99.90
31809;DHT22;18379;48.208;-1.518;2022-09-09T06:22:02;16.70;99.90
31809;DHT22;18379;48.208;-1.518;2022-09-09T06:27:04;16.70;99.90
31809;DHT22;18379;48.208;-1.518;2022-09-09T06:32:05;16.80;99.90
31809;DHT22;18379;48.208;-1.518;2022-09-09T06:37:09;16.80;99.90
31809;DHT22;18379;48.208;-1.518;2022-09-09T06:42:09;16.80;99.90
31809;DHT22;18379;48.208;-1.518;2022-09-09T06:47:10;16.80;99.90
31809;DHT22;18379;48.208;-1.518;2022-09-09T06:52:11;16.80;99.90
31809;DHT22;18379;48.208;-1.518;2022-09-09T06:57:12;16.80;99.90
31809;DHT22;18379;48.208;-1.518;2022-09-09T07:02:13;16.90;99.90
31809;DHT22;18379;48.208;-1.518;2022-09-09T07:07:13;17.00;99.90
31809;DHT22;18379;48.208;-1.518;2022-09-09T07:12:15;16.90;99.90
31809;DHT22;18379;48.208;-1.518;2022-09-09T07:17:17;17.00;99.90
31809;DHT22;18379;48.208;-1.518;2022-09-09T07:22:17;17.00;99.90
31809;DHT22;18379;48.208;-1.518;2022-09-09T07:27:20;17.10;99.90
31809;DHT22;18379;48.208;-1.518;2022-09-09T07:32:22;17.20;99.90
31809;DHT22;18379;48.208;-1.518;2022-09-09T07:37:22;17.30;99.90
31809;DHT22;18379;48.208;-1.518;2022-09-09T07:42:24;17.50;99.90
31809;DHT22;18379;48.208;-1.518;2022-09-09T07:47:25;17.60;99.90
31809;DHT22;18379;48.208;-1.518;2022-09-09T07:52:26;17.60;99.90
31809;DHT22;18379;48.208;-1.518;2022-09-09T07:57:29;17.60;99.90
31809;DHT22;18379;48.208;-1.518;2022-09-09T08:02:32;17.60;99.90
31809;DHT22;18379;48.208;-1.518;2022-09-09T08:07:33;17.60;99.90
31809;DHT22;18379;48.208;-1.518;2022-09-09T08:12:34;17.60;99.90
31809;DHT22;18379;48.208;-1.518;2022-09-09T08:17:35;17.60;99.90
31809;DHT22;18379;48.208;-1.518;2022-09-09T08:22:38;17.80;99.90
31809;DHT22;18379;48.208;-1.518;2022-09-09T08:27:39;17.90;99.90
31809;DHT22;18379;48.208;-1.518;2022-09-09T08:32:40;17.90;99.90
31809;DHT22;18379;48.208;-1.518;2022-09-09T08:37:41;18.00;99.90
31809;DHT22;18379;48.208;-1.518;2022-09-09T08:42:46;18.10;99.90
31809;DHT22;18379;48.208;-1.518;2022-09-09T08:53:24;18.40;99.90
31809;DHT22;18379;48.208;-1.518;2022-09-09T08:58:29;18.50;99.90
31809;DHT22;18379;48.208;-1.518;2022-09-09T09:14:03;18.70;99.90
31809;DHT22;18379;48.208;-1.518;2022-09-09T09:19:11;18.70;99.90
31809;DHT22;18379;48.208;-1.518;2022-09-09T09:24:45;18.90;99.90
31809;DHT22;18379;48.208;-1.518;2022-09-09T09:29:50;19.00;99.90
31809;DHT22;18379;48.208;-1.518;2022-09-09T09:34:56;19.00;99.90
31809;DHT22;18379;48.208;-1.518;2022-09-09T09:40:12;19.10;99.90
31809;DHT22;18379;48.208;-1.518;2022-09-09T09:50:34;19.80;99.90
31809;DHT22;18379;48.208;-1.518;2022-09-09T09:55:36;19.60;99.90
31809;DHT22;18379;48.208;-1.518;2022-09-09T10:00:50;19.60;99.90
31809;DHT22;18379;48.208;-1.518;2022-09-09T10:05:52;19.60;99.90
31809;DHT22;18379;48.208;-1.518;2022-09-09T10:27:15;20.40;99.90
31809;DHT22;18379;48.208;-1.518;2022-09-09T10:32:41;20.60;99.90
31809;DHT22;18379;48.208;-1.518;2022-09-09T10:42:59;20.80;99.90
31809;DHT22;18379;48.208;-1.518;2022-09-09T10:48:31;20.90;99.90
31809;DHT22;18379;48.208;-1.518;2022-09-09T10:53:58;21.30;99.90
31809;DHT22;18379;48.208;-1.518;2022-09-09T10:59:43;21.30;99.90
31809;DHT22;18379;48.208;-1.518;2022-09-09T11:04:55;21.20;99.90
31809;DHT22;18379;48.208;-1.518;2022-09-09T11:10:02;20.70;99.90
31809;DHT22;18379;48.208;-1.518;2022-09-09T11:15:26;20.80;99.90
31809;DHT22;18379;48.208;-1.518;2022-09-09T11:20:29;21.00;99.90
31809;DHT22;18379;48.208;-1.518;2022-09-09T11:25:36;20.80;99.90
31809;DHT22;18379;48.208;-1.518;2022-09-09T11:41:08;21.90;99.90
31809;DHT22;18379;48.208;-1.518;2022-09-09T11:46:11;22.10;99.90
31809;DHT22;18379;48.208;-1.518;2022-09-09T11:51:26;22.10;99.90
31809;DHT22;18379;48.208;-1.518;2022-09-09T11:56:31;22.50;99.90
31809;DHT22;18379;48.208;-1.518;2022-09-09T12:06:46;22.40;99.90
31809;DHT22;18379;48.208;-1.518;2022-09-09T12:11:48;22.60;99.90
31809;DHT22;18379;48.208;-1.518;2022-09-09T12:16:49;22.70;99.90
31809;DHT22;18379;48.208;-1.518;2022-09-09T12:21:58;22.70;99.90
31809;DHT22;18379;48.208;-1.518;2022-09-09T12:27:21;22.60;99.90
31809;DHT22;18379;48.208;-1.518;2022-09-09T12:32:26;22.30;99.70
31809;DHT22;18379;48.208;-1.518;2022-09-09T12:37:42;22.50;99.90
31809;DHT22;18379;48.208;-1.518;2022-09-09T12:42:47;22.80;99.90
31809;DHT22;18379;48.208;-1.518;2022-09-09T12:48:04;22.70;99.40
31809;DHT22;18379;48.208;-1.518;2022-09-09T12:58:26;22.80;99.40
31809;DHT22;18379;48.208;-1.518;2022-09-09T13:03:28;22.70;98.90
31809;DHT22;18379;48.208;-1.518;2022-09-09T13:08:29;22.70;99.10
31809;DHT22;18379;48.208;-1.518;2022-09-09T13:13:36;22.40;98.80
31809;DHT22;18379;48.208;-1.518;2022-09-09T13:18:40;21.30;99.10
31809;DHT22;18379;48.208;-1.518;2022-09-09T13:23:41;20.70;99.90
31809;DHT22;18379;48.208;-1.518;2022-09-09T13:28:42;20.00;99.90
31809;DHT22;18379;48.208;-1.518;2022-09-09T13:33:42;19.70;99.90
31809;DHT22;18379;48.208;-1.518;2022-09-09T13:38:54;19.80;99.90
31809;DHT22;18379;48.208;-1.518;2022-09-09T13:43:56;19.90;99.90
31809;DHT22;18379;48.208;-1.518;2022-09-09T13:48:59;20.00;99.90
31809;DHT22;18379;48.208;-1.518;2022-09-09T13:54:01;19.50;99.90
31809;DHT22;18379;48.208;-1.518;2022-09-09T13:59:03;19.20;99.90
31809;DHT22;18379;48.208;-1.518;2022-09-09T14:04:05;19.40;99.90
31809;DHT22;18379;48.208;-1.518;2022-09-09T14:09:10;19.60;99.90
31809;DHT22;18379;48.208;-1.518;2022-09-09T14:14:11;19.60;99.90
31809;DHT22;18379;48.208;-1.518;2022-09-09T14:19:12;19.70;99.90
31809;DHT22;18379;48.208;-1.518;2022-09-09T14:24:14;19.70;99.90
31809;DHT22;18379;48.208;-1.518;2022-09-09T14:29:15;19.80;99.90
31809;DHT22;18379;48.208;-1.518;2022-09-09T14:34:16;19.80;99.90
31809;DHT22;18379;48.208;-1.518;2022-09-09T14:39:17;19.80;99.90
31809;DHT22;18379;48.208;-1.518;2022-09-09T14:44:18;19.90;99.90
31809;DHT22;18379;48.208;-1.518;2022-09-09T14:49:19;19.90;99.90
31809;DHT22;18379;48.208;-1.518;2022-09-09T14:54:20;20.00;99.90
31809;DHT22;18379;48.208;-1.518;2022-09-09T14:59:24;20.00;99.90
31809;DHT22;18379;48.208;-1.518;2022-09-09T15:04:28;20.10;99.90
31809;DHT22;18379;48.208;-1.518;2022-09-09T15:09:28;20.10;99.90
31809;DHT22;18379;48.208;-1.518;2022-09-09T15:14:30;20.10;99.90
31809;DHT22;18379;48.208;-1.518;2022-09-09T15:19:31;20.20;99.90
31809;DHT22;18379;48.208;-1.518;2022-09-09T15:24:33;20.20;99.90
31809;DHT22;18379;48.208;-1.518;2022-09-09T15:29:34;20.40;99.90
31809;DHT22;18379;48.208;-1.518;2022-09-09T15:34:35;20.50;99.90
31809;DHT22;18379;48.208;-1.518;2022-09-09T15:39:38;20.60;99.90
31809;DHT22;18379;48.208;-1.518;2022-09-09T15:44:40;20.70;99.90
31809;DHT22;18379;48.208;-1.518;2022-09-09T15:49:42;20.60;99.90
31809;DHT22;18379;48.208;-1.518;2022-09-09T15:54:44;20.50;99.90
31809;DHT22;18379;48.208;-1.518;2022-09-09T15:59:46;20.50;99.90
31809;DHT22;18379;48.208;-1.518;2022-09-09T16:04:48;20.30;99.90
31809;DHT22;18379;48.208;-1.518;2022-09-09T16:10:12;20.30;99.90
31809;DHT22;18379;48.208;-1.518;2022-09-09T16:15:16;20.40;99.90
31809;DHT22;18379;48.208;-1.518;2022-09-09T16:20:17;20.50;99.90
31809;DHT22;18379;48.208;-1.518;2022-09-09T16:25:19;20.60;99.90
31809;DHT22;18379;48.208;-1.518;2022-09-09T16:30:21;20.60;99.90
31809;DHT22;18379;48.208;-1.518;2022-09-09T16:35:23;20.60;99.90
31809;DHT22;18379;48.208;-1.518;2022-09-09T16:40:34;20.60;99.90
31809;DHT22;18379;48.208;-1.518;2022-09-09T16:45:42;20.60;99.90
31809;DHT22;18379;48.208;-1.518;2022-09-09T16:50:45;20.50;99.90
31809;DHT22;18379;48.208;-1.518;2022-09-09T16:55:46;20.10;99.90
31809;DHT22;18379;48.208;-1.518;2022-09-09T17:00:50;20.10;99.90
31809;DHT22;18379;48.208;-1.518;2022-09-09T17:05:51;20.20;99.90
31809;DHT22;18379;48.208;-1.518;2022-09-09T17:10:53;20.20;99.90
31809;DHT22;18379;48.208;-1.518;2022-09-09T17:15:55;20.10;99.90
31809;DHT22;18379;48.208;-1.518;2022-09-09T17:20:56;20.00;99.90
31809;DHT22;18379;48.208;-1.518;2022-09-09T17:26:07;19.80;99.90
31809;DHT22;18379;48.208;-1.518;2022-09-09T17:31:11;19.60;99.90
31809;DHT22;18379;48.208;-1.518;2022-09-09T17:36:17;19.40;99.90
31809;DHT22;18379;48.208;-1.518;2022-09-09T17:41:25;19.30;99.90
31809;DHT22;18379;48.208;-1.518;2022-09-09T17:46:29;19.30;99.90
31809;DHT22;18379;48.208;-1.518;2022-09-09T17:51:32;19.30;99.90
31809;DHT22;18379;48.208;-1.518;2022-09-09T17:56:36;19.20;99.90
31809;DHT22;18379;48.208;-1.518;2022-09-09T18:01:40;19.30;99.90
31809;DHT22;18379;48.208;-1.518;2022-09-09T18:06:46;19.10;99.90
31809;DHT22;18379;48.208;-1.518;2022-09-09T18:11:50;19.20;99.90
31809;DHT22;18379;48.208;-1.518;2022-09-09T18:16:51;19.20;99.90
31809;DHT22;18379;48.208;-1.518;2022-09-09T18:21:53;19.10;99.90
31809;DHT22;18379;48.208;-1.518;2022-09-09T18:26:54;19.10;99.90
31809;DHT22;18379;48.208;-1.518;2022-09-09T18:31:56;18.90;99.90
31809;DHT22;18379;48.208;-1.518;2022-09-09T18:37:00;18.90;99.90
31809;DHT22;18379;48.208;-1.518;2022-09-09T18:42:05;18.90;99.90
31809;DHT22;18379;48.208;-1.518;2022-09-09T18:47:10;18.90;99.90
31809;DHT22;18379;48.208;-1.518;2022-09-09T18:52:12;18.90;99.90
31809;DHT22;18379;48.208;-1.518;2022-09-09T18:57:13;19.00;99.90
31809;DHT22;18379;48.208;-1.518;2022-09-09T19:02:14;19.10;99.90
31809;DHT22;18379;48.208;-1.518;2022-09-09T19:07:15;19.10;99.90
31809;DHT22;18379;48.208;-1.518;2022-09-09T19:12:16;19.10;99.90
31809;DHT22;18379;48.208;-1.518;2022-09-09T19:17:19;19.00;99.90
31809;DHT22;18379;48.208;-1.518;2022-09-09T19:22:21;19.00;99.90
31809;DHT22;18379;48.208;-1.518;2022-09-09T19:27:22;19.10;99.90
31809;DHT22;18379;48.208;-1.518;2022-09-09T19:32:23;19.00;99.90
31809;DHT22;18379;48.208;-1.518;2022-09-09T19:37:25;19.00;99.90
31809;DHT22;18379;48.208;-1.518;2022-09-09T19:42:27;19.00;99.90
31809;DHT22;18379;48.208;-1.518;2022-09-09T19:47:30;19.00;99.90
31809;DHT22;18379;48.208;-1.518;2022-09-09T19:52:33;19.00;99.90
31809;DHT22;18379;48.208;-1.518;2022-09-09T19:57:34;18.90;99.90
31809;DHT22;18379;48.208;-1.518;2022-09-09T20:02:36;18.90;99.90
31809;DHT22;18379;48.208;-1.518;2022-09-09T20:07:37;18.90;99.90
31809;DHT22;18379;48.208;-1.518;2022-09-09T20:12:38;18.90;99.90
31809;DHT22;18379;48.208;-1.518;2022-09-09T20:17:39;18.90;99.90
31809;DHT22;18379;48.208;-1.518;2022-09-09T20:22:42;18.80;99.90
31809;DHT22;18379;48.208;-1.518;2022-09-09T20:27:43;18.80;99.90
31809;DHT22;18379;48.208;-1.518;2022-09-09T20:32:44;18.70;99.90
31809;DHT22;18379;48.208;-1.518;2022-09-09T20:37:47;18.70;99.90
31809;DHT22;18379;48.208;-1.518;2022-09-09T20:42:49;18.60;99.90
31809;DHT22;18379;48.208;-1.518;2022-09-09T20:47:50;18.60;99.90
31809;DHT22;18379;48.208;-1.518;2022-09-09T20:52:51;18.60;99.90
31809;DHT22;18379;48.208;-1.518;2022-09-09T20:57:52;18.60;99.90
31809;DHT22;18379;48.208;-1.518;2022-09-09T21:02:53;18.50;99.90
31809;DHT22;18379;48.208;-1.518;2022-09-09T21:07:54;18.40;99.90
31809;DHT22;18379;48.208;-1.518;2022-09-09T21:12:56;18.40;99.90
31809;DHT22;18379;48.208;-1.518;2022-09-09T21:17:58;18.40;99.90
31809;DHT22;18379;48.208;-1.518;2022-09-09T21:22:59;18.30;99.90
31809;DHT22;18379;48.208;-1.518;2022-09-09T21:28:02;18.30;99.90
31809;DHT22;18379;48.208;-1.518;2022-09-09T21:33:04;18.20;99.90
31809;DHT22;18379;48.208;-1.518;2022-09-09T21:38:06;18.20;99.90
31809;DHT22;18379;48.208;-1.518;2022-09-09T21:43:08;18.10;99.90
31809;DHT22;18379;48.208;-1.518;2022-09-09T21:48:13;18.10;99.90
31809;DHT22;18379;48.208;-1.518;2022-09-09T21:53:16;18.10;99.90
31809;DHT22;18379;48.208;-1.518;2022-09-09T21:58:19;18.00;99.90
31809;DHT22;18379;48.208;-1.518;2022-09-09T22:03:20;18.00;99.90
31809;DHT22;18379;48.208;-1.518;2022-09-09T22:08:21;18.00;99.90
31809;DHT22;18379;48.208;-1.518;2022-09-09T22:13:22;17.90;99.90
31809;DHT22;18379;48.208;-1.518;2022-09-09T22:18:22;17.90;99.90
31809;DHT22;18379;48.208;-1.518;2022-09-09T22:23:25;17.80;99.90
31809;DHT22;18379;48.208;-1.518;2022-09-09T22:28:25;17.80;99.90
31809;DHT22;18379;48.208;-1.518;2022-09-09T22:33:28;17.80;99.90
31809;DHT22;18379;48.208;-1.518;2022-09-09T22:38:29;17.70;99.90
31809;DHT22;18379;48.208;-1.518;2022-09-09T22:43:31;17.70;99.90
31809;DHT22;18379;48.208;-1.518;2022-09-09T22:48:36;17.60;99.90
31809;DHT22;18379;48.208;-1.518;2022-09-09T22:53:39;17.60;99.90
31809;DHT22;18379;48.208;-1.518;2022-09-09T22:58:40;17.50;99.90
31809;DHT22;18379;48.208;-1.518;2022-09-09T23:03:41;17.50;99.90
31809;DHT22;18379;48.208;-1.518;2022-09-09T23:08:45;17.50;99.90
31809;DHT22;18379;48.208;-1.518;2022-09-09T23:13:52;17.50;99.90
31809;DHT22;18379;48.208;-1.518;2022-09-09T23:18:53;17.40;99.90
31809;DHT22;18379;48.208;-1.518;2022-09-09T23:23:56;17.40;99.90
31809;DHT22;18379;48.208;-1.518;2022-09-09T23:28:58;17.40;99.90
31809;DHT22;18379;48.208;-1.518;2022-09-09T23:34:00;17.40;99.90
31809;DHT22;18379;48.208;-1.518;2022-09-09T23:39:03;17.30;99.90
31809;DHT22;18379;48.208;-1.518;2022-09-09T23:44:05;17.30;99.90
31809;DHT22;18379;48.208;-1.518;2022-09-09T23:49:06;17.20;99.90
31809;DHT22;18379;48.208;-1.518;2022-09-09T23:54:09;17.30;99.90
31809;DHT22;18379;48.208;-1.518;2022-09-09T23:59:11;17.30;99.90
